createdAt,value
2018-02-04T00:01:32.429Z,18.27
2018-02-04T00:03:59.944Z,17.20
2018-02-04T00:06:28.234Z,16.37
2018-02-04T00:08:56.551Z,15.77
2018-02-04T00:11:24.813Z,17.08
2018-02-04T00:13:52.339Z,13.18
2018-02-04T00:16:20.615Z,19.02
2018-02-04T00:18:48.893Z,16.50
2018-02-04T00:21:17.202Z,14.60
2018-02-04T00:23:44.750Z,15.55
2018-02-04T00:26:12.265Z,14.40
2018-02-04T00:28:39.800Z,13.05
2018-02-04T00:31:07.341Z,14.70
2018-02-04T00:33:34.900Z,14.55
2018-02-04T00:36:02.428Z,14.90
2018-02-04T00:38:30.712Z,15.07
2018-02-04T00:40:58.994Z,13.55
2018-02-04T00:43:26.536Z,13.75
2018-02-04T00:45:54.815Z,13.68
2018-02-04T00:48:23.137Z,13.02
2018-02-04T00:50:50.655Z,13.13
2018-02-04T00:53:19.666Z,12.63
2018-02-04T00:55:47.214Z,11.70
2018-02-04T00:58:14.749Z,13.00
2018-02-04T01:00:43.032Z,15.32
2018-02-04T01:03:11.294Z,12.85
2018-02-04T01:05:38.822Z,14.93
2018-02-04T01:08:06.354Z,15.50
2018-02-04T01:10:33.858Z,14.60
2018-02-04T01:13:01.405Z,15.55
2018-02-04T01:15:28.923Z,15.48
2018-02-04T01:17:56.419Z,14.32
2018-02-04T01:20:23.938Z,14.52
2018-02-04T01:22:51.443Z,18.17
2018-02-04T01:25:18.960Z,17.40
2018-02-04T01:27:46.464Z,16.98
2018-02-04T01:30:13.999Z,16.35
2018-02-04T01:32:41.514Z,19.25
2018-02-04T01:35:09.803Z,15.50
2018-02-04T01:37:37.322Z,22.08
2018-02-04T01:40:04.833Z,17.58
2018-02-04T01:42:38.326Z,17.92
2018-02-04T01:45:05.848Z,18.10
2018-02-04T01:47:33.389Z,15.88
2018-02-04T01:50:01.643Z,21.77
2018-02-04T01:52:29.139Z,18.23
2018-02-04T01:54:56.684Z,16.75
2018-02-04T01:57:24.263Z,20.62
2018-02-04T01:59:52.564Z,19.23
2018-02-04T02:02:20.095Z,18.95
2018-02-04T02:04:48.387Z,18.70
2018-02-04T02:07:16.719Z,20.88
2018-02-04T02:09:44.251Z,22.62
2018-02-04T02:12:11.786Z,21.55
2018-02-04T02:14:40.111Z,22.05
2018-02-04T02:17:07.615Z,23.92
2018-02-04T02:19:35.917Z,21.42
2018-02-04T02:22:03.419Z,24.48
2018-02-04T02:24:30.922Z,21.12
2018-02-04T02:26:58.480Z,21.30
2018-02-04T02:29:26.004Z,21.35
2018-02-04T02:31:53.518Z,18.45
2018-02-04T02:34:21.057Z,21.60
2018-02-04T02:36:48.583Z,17.73
2018-02-04T02:39:16.079Z,20.67
2018-02-04T02:41:43.623Z,18.27
2018-02-04T02:44:11.909Z,18.70
2018-02-04T02:46:39.423Z,21.65
2018-02-04T02:49:06.976Z,22.05
2018-02-04T02:51:34.481Z,20.58
2018-02-04T02:54:02.032Z,19.08
2018-02-04T02:56:30.376Z,21.15
2018-02-04T02:58:57.874Z,19.05
2018-02-04T03:01:26.138Z,19.15
2018-02-04T03:03:54.445Z,21.10
2018-02-04T03:06:21.979Z,24.55
2018-02-04T03:08:49.549Z,20.85
2018-02-04T03:11:17.089Z,20.55
2018-02-04T03:13:45.362Z,18.90
2018-02-04T03:16:13.657Z,21.90
2018-02-04T03:18:41.189Z,19.55
2018-02-04T03:21:08.699Z,18.00
2018-02-04T03:23:36.218Z,19.20
2018-02-04T03:26:04.551Z,15.15
2018-02-04T03:28:32.049Z,21.02
2018-02-04T03:31:00.357Z,16.02
2018-02-04T03:33:27.872Z,20.08
2018-02-04T03:35:55.488Z,18.17
2018-02-04T03:38:23.743Z,18.90
2018-02-04T03:40:51.242Z,17.00
2018-02-04T03:43:18.804Z,18.35
2018-02-04T03:45:46.317Z,20.05
2018-02-04T03:48:14.668Z,20.15
2018-02-04T03:50:42.168Z,21.02
2018-02-04T03:53:09.670Z,19.60
2018-02-04T03:55:37.224Z,18.12
2018-02-04T03:58:04.730Z,17.70
2018-02-04T04:00:32.265Z,17.02
2018-02-04T04:03:00.530Z,15.38
2018-02-04T04:05:28.101Z,22.75
2018-02-04T04:07:56.376Z,18.58
2018-02-04T04:10:23.923Z,22.92
2018-02-04T04:12:51.415Z,20.55
2018-02-04T04:15:18.932Z,20.02
2018-02-04T04:17:46.458Z,19.83
2018-02-04T04:20:13.950Z,18.85
2018-02-04T04:22:41.506Z,19.87
2018-02-04T04:25:09.006Z,18.55
2018-02-04T04:27:37.302Z,20.23
2018-02-04T04:30:04.860Z,21.10
2018-02-04T04:32:32.386Z,21.98
2018-02-04T04:35:00.685Z,20.60
2018-02-04T04:37:28.220Z,16.58
2018-02-04T04:39:56.531Z,19.12
2018-02-04T04:42:24.038Z,20.30
2018-02-04T04:44:51.587Z,17.90
2018-02-04T04:47:19.107Z,17.67
2018-02-04T04:49:46.612Z,19.77
2018-02-04T04:52:14.138Z,22.00
2018-02-04T04:54:41.663Z,23.35
2018-02-04T04:57:09.984Z,23.48
2018-02-04T04:59:37.501Z,22.48
2018-02-04T05:02:05.026Z,21.02
2018-02-04T05:04:33.301Z,21.65
2018-02-04T05:07:00.827Z,22.70
2018-02-04T05:09:28.363Z,26.92
2018-02-04T05:11:56.864Z,24.55
2018-02-04T05:14:24.374Z,26.15
2018-02-04T05:16:52.670Z,26.75
2018-02-04T05:19:20.192Z,30.42
2018-02-04T05:21:47.726Z,29.25
2018-02-04T05:24:15.220Z,31.35
2018-02-04T05:26:43.539Z,33.97
2018-02-04T05:29:11.036Z,34.30
2018-02-04T05:31:38.604Z,27.40
2018-02-04T05:34:06.127Z,30.50
2018-02-04T05:36:33.673Z,34.40
2018-02-04T05:39:01.180Z,31.20
2018-02-04T05:41:28.711Z,33.05
2018-02-04T05:43:56.258Z,31.95
2018-02-04T05:46:23.752Z,30.95
2018-02-04T05:48:51.247Z,29.33
2018-02-04T05:51:18.772Z,29.08
2018-02-04T05:53:46.295Z,28.58
2018-02-04T05:56:13.783Z,32.83
2018-02-04T05:58:41.306Z,33.20
2018-02-04T06:01:08.811Z,30.27
2018-02-04T06:03:36.379Z,36.75
2018-02-04T06:06:05.511Z,35.33
2018-02-04T06:08:33.053Z,37.03
2018-02-04T06:11:00.602Z,36.97
2018-02-04T06:13:28.902Z,34.17
2018-02-04T06:15:56.452Z,34.28
2018-02-04T06:18:23.963Z,37.38
2018-02-04T06:20:51.470Z,36.88
2018-02-04T06:23:19.617Z,36.92
2018-02-04T06:25:47.918Z,37.10
2018-02-04T06:28:15.450Z,37.50
2018-02-04T06:30:43.745Z,36.47
2018-02-04T06:33:12.022Z,34.80
2018-02-04T06:35:40.333Z,38.85
2018-02-04T06:38:07.850Z,36.45
2018-02-04T06:40:36.139Z,38.95
2018-02-04T06:43:03.659Z,38.20
2018-02-04T06:45:31.188Z,40.25
2018-02-04T06:47:58.676Z,40.97
2018-02-04T06:50:26.225Z,40.12
2018-02-04T06:52:53.755Z,42.10
2018-02-04T06:55:21.314Z,40.30
2018-02-04T06:57:48.818Z,40.95
2018-02-04T07:00:16.332Z,45.75
2018-02-04T07:02:43.865Z,44.65
2018-02-04T07:05:11.383Z,44.95
2018-02-04T07:07:38.906Z,48.45
2018-02-04T07:10:07.208Z,38.45
2018-02-04T07:12:34.731Z,37.75
2018-02-04T07:15:02.265Z,37.42
2018-02-04T07:17:30.545Z,38.88
2018-02-04T07:19:58.061Z,41.65
2018-02-04T07:22:25.637Z,37.28
2018-02-04T07:24:53.192Z,34.97
2018-02-04T07:27:20.703Z,39.65
2018-02-04T07:29:48.231Z,34.85
2018-02-04T07:32:16.528Z,35.88
2018-02-04T07:34:44.040Z,38.10
2018-02-04T07:37:11.588Z,56.75
2018-02-04T07:39:39.091Z,37.53
2018-02-04T07:42:07.391Z,39.67
2018-02-04T07:44:34.923Z,79.65
2018-02-04T07:47:03.186Z,70.22
2018-02-04T07:49:30.728Z,56.92
2018-02-04T07:51:58.263Z,46.72
2018-02-04T07:54:25.819Z,50.78
2018-02-04T07:56:53.343Z,47.88
2018-02-04T07:59:21.633Z,50.15
2018-02-04T08:01:49.135Z,44.67
2018-02-04T08:04:16.669Z,50.58
2018-02-04T08:06:44.179Z,46.03
2018-02-04T08:09:12.468Z,46.25
2018-02-04T08:11:40.767Z,39.38
2018-02-04T08:14:08.267Z,39.22
2018-02-04T08:16:35.808Z,39.38
2018-02-04T08:19:03.326Z,44.00
2018-02-04T08:21:30.839Z,32.40
2018-02-04T08:23:58.605Z,33.63
2018-02-04T08:26:26.147Z,32.63
2018-02-04T08:28:53.676Z,38.85
2018-02-04T08:31:21.210Z,30.20
2018-02-04T08:33:49.527Z,32.45
2018-02-04T08:36:17.072Z,39.13
2018-02-04T08:38:44.586Z,30.23
2018-02-04T08:41:12.122Z,22.00
2018-02-04T08:43:39.647Z,23.62
2018-02-04T08:46:07.184Z,24.17
2018-02-04T08:48:35.488Z,25.23
2018-02-04T08:51:03.775Z,24.80
2018-02-04T08:53:31.287Z,25.33
2018-02-04T08:55:59.579Z,25.00
2018-02-04T08:58:27.901Z,26.92
2018-02-04T09:00:55.444Z,23.87
2018-02-04T09:03:22.959Z,28.17
2018-02-04T09:05:51.265Z,30.48
2018-02-04T09:08:18.812Z,37.42
2018-02-04T09:10:46.336Z,37.75
2018-02-04T09:13:13.887Z,37.03
2018-02-04T09:15:41.418Z,35.80
2018-02-04T09:18:08.912Z,31.35
2018-02-04T09:20:36.451Z,33.47
2018-02-04T09:23:04.011Z,28.83
2018-02-04T09:25:31.552Z,33.08
2018-02-04T09:27:59.722Z,38.30
2018-02-04T09:30:27.282Z,31.05
2018-02-04T09:32:54.818Z,30.90
2018-02-04T09:35:22.353Z,28.23
2018-02-04T09:37:50.624Z,29.50
2018-02-04T09:40:18.136Z,25.95
2018-02-04T09:42:45.650Z,27.13
2018-02-04T09:45:13.207Z,26.90
2018-02-04T09:47:41.535Z,29.65
2018-02-04T09:50:09.046Z,25.88
2018-02-04T09:52:38.735Z,29.37
2018-02-04T09:55:07.963Z,29.58
2018-02-04T09:57:37.775Z,33.55
2018-02-04T10:00:07.677Z,25.60
2018-02-04T10:02:36.024Z,25.37
2018-02-04T10:05:03.549Z,29.30
2018-02-04T10:07:31.079Z,29.75
2018-02-04T10:09:59.598Z,31.67
2018-02-04T10:12:27.155Z,26.12
2018-02-04T10:14:54.715Z,28.52
2018-02-04T10:17:24.022Z,26.15
2018-02-04T10:19:53.642Z,25.52
2018-02-04T10:22:22.894Z,29.87
2018-02-04T10:24:53.006Z,28.23
2018-02-04T10:27:22.585Z,67.00
2018-02-04T10:29:50.171Z,22.85
2018-02-04T10:32:18.744Z,24.05
2018-02-04T10:34:47.070Z,26.40
2018-02-04T10:37:14.639Z,31.70
2018-02-04T10:39:42.156Z,17.95
2018-02-04T10:42:10.469Z,16.48
2018-02-04T10:44:38.005Z,15.50
2018-02-04T10:47:20.254Z,15.52
2018-02-04T10:49:47.759Z,15.52
2018-02-04T10:52:15.328Z,18.40
2018-02-04T10:54:42.931Z,17.83
2018-02-04T10:57:10.663Z,20.95
2018-02-04T10:59:38.191Z,19.95
2018-02-04T11:02:06.484Z,19.27
2018-02-04T11:04:34.036Z,21.37
2018-02-04T11:07:01.551Z,20.40
2018-02-04T11:09:29.081Z,17.65
2018-02-04T11:11:56.602Z,17.33
2018-02-04T11:14:24.919Z,16.50
2018-02-04T11:16:52.436Z,16.05
2018-02-04T11:19:20.749Z,14.95
2018-02-04T11:21:48.284Z,16.98
2018-02-04T11:24:15.825Z,15.85
2018-02-04T11:26:44.125Z,16.17
2018-02-04T11:29:11.651Z,16.12
2018-02-04T11:31:39.990Z,17.92
2018-02-04T11:34:07.508Z,17.45
2018-02-04T11:36:35.835Z,16.73
2018-02-04T11:39:03.377Z,17.92
2018-02-04T11:41:30.924Z,20.42
2018-02-04T11:43:58.475Z,19.17
2018-02-04T11:46:26.011Z,15.63
2018-02-04T11:48:54.297Z,18.55
2018-02-04T11:51:21.833Z,17.23
2018-02-04T11:53:50.320Z,17.35
2018-02-04T11:56:18.621Z,19.75
2018-02-04T11:58:46.218Z,17.83
2018-02-04T12:01:13.780Z,17.60
2018-02-04T12:03:41.312Z,19.62
2018-02-04T12:06:08.844Z,19.27
2018-02-04T12:08:37.259Z,19.00
2018-02-04T12:11:04.793Z,20.45
2018-02-04T12:13:32.633Z,19.52
2018-02-04T12:16:00.221Z,22.20
2018-02-04T12:18:27.783Z,20.83
2018-02-04T12:20:55.331Z,20.90
2018-02-04T12:23:23.602Z,18.98
2018-02-04T12:25:51.143Z,19.27
2018-02-04T12:28:18.696Z,20.80
2018-02-04T12:30:46.253Z,18.80
2018-02-04T12:33:13.857Z,23.55
2018-02-04T12:35:41.374Z,18.55
2018-02-04T12:38:08.904Z,17.77
2018-02-04T12:40:36.407Z,16.30
2018-02-04T12:43:04.728Z,19.65
2018-02-04T12:45:32.241Z,17.45
2018-02-04T12:47:59.802Z,19.67
2018-02-04T12:50:28.072Z,15.90
2018-02-04T12:52:56.375Z,17.33
2018-02-04T12:55:23.936Z,17.67
2018-02-04T12:57:51.493Z,16.55
2018-02-04T13:00:18.999Z,19.25
2018-02-04T13:02:46.539Z,18.08
2018-02-04T13:05:14.129Z,16.98
2018-02-04T13:07:42.422Z,14.98
2018-02-04T13:10:10.744Z,16.67
2018-02-04T13:12:38.307Z,19.45
2018-02-04T13:15:05.834Z,18.70
2018-02-04T13:17:34.136Z,19.33
2018-02-04T13:20:01.667Z,19.85
2018-02-04T13:22:30.041Z,17.17
2018-02-04T13:24:58.320Z,19.48
2018-02-04T13:27:25.891Z,20.80
2018-02-04T13:29:53.474Z,24.85
2018-02-04T13:32:21.780Z,19.35
2018-02-04T13:34:49.352Z,22.20
2018-02-04T13:37:16.909Z,19.35
2018-02-04T13:39:44.451Z,23.38
2018-02-04T13:42:11.992Z,22.35
2018-02-04T13:44:39.538Z,21.73
2018-02-04T13:47:07.092Z,23.33
2018-02-04T13:49:34.596Z,25.42
2018-02-04T13:52:02.146Z,20.70
2018-02-04T13:54:29.650Z,20.45
2018-02-04T13:56:57.953Z,25.55
2018-02-04T13:59:25.469Z,30.05
2018-02-04T14:01:53.019Z,23.77
2018-02-04T14:04:20.556Z,21.95
2018-02-04T14:06:48.079Z,21.58
2018-02-04T14:09:15.622Z,21.83
2018-02-04T14:11:43.932Z,23.27
2018-02-04T14:14:11.456Z,21.73
2018-02-04T14:16:39.759Z,22.62
2018-02-04T14:19:07.337Z,19.15
2018-02-04T14:21:34.874Z,22.95
2018-02-04T14:24:02.395Z,21.73
2018-02-04T14:26:30.715Z,21.62
2018-02-04T14:28:58.242Z,20.37
2018-02-04T14:31:26.553Z,16.27
2018-02-04T14:33:54.117Z,19.75
2018-02-04T14:36:21.683Z,21.48
2018-02-04T14:38:49.216Z,20.37
2018-02-04T14:41:16.731Z,19.37
2018-02-04T14:43:44.284Z,20.90
2018-02-04T14:46:11.817Z,18.45
2018-02-04T14:48:39.375Z,17.30
2018-02-04T14:51:06.926Z,16.05
2018-02-04T14:53:34.463Z,20.10
2018-02-04T14:56:01.967Z,20.90
2018-02-04T14:58:29.521Z,21.30
2018-02-04T15:00:57.075Z,23.27
2018-02-04T15:03:24.620Z,19.95
2018-02-04T15:05:52.125Z,21.05
2018-02-04T15:08:19.651Z,18.90
2018-02-04T15:10:47.230Z,22.73
2018-02-04T15:13:14.762Z,20.02
2018-02-04T15:15:42.328Z,22.00
2018-02-04T15:18:09.865Z,24.25
2018-02-04T15:20:37.423Z,20.73
2018-02-04T15:23:04.954Z,24.37
2018-02-04T15:25:33.219Z,19.98
2018-02-04T15:28:00.787Z,22.87
2018-02-04T15:30:28.336Z,21.12
2018-02-04T15:32:55.882Z,21.45
2018-02-04T15:35:23.408Z,22.08
2018-02-04T15:37:50.928Z,20.23
2018-02-04T15:40:19.267Z,19.52
2018-02-04T15:42:46.820Z,19.45
2018-02-04T15:45:14.342Z,20.58
2018-02-04T15:47:41.876Z,27.37
2018-02-04T15:50:10.181Z,20.05
2018-02-04T15:52:37.733Z,17.60
2018-02-04T15:55:05.282Z,19.23
2018-02-04T15:57:32.849Z,19.30
2018-02-04T16:00:00.403Z,21.55
2018-02-04T16:02:27.933Z,21.08
2018-02-04T16:04:55.471Z,27.25
2018-02-04T16:07:23.038Z,20.40
2018-02-04T16:09:50.603Z,20.83
2018-02-04T16:12:18.118Z,22.67
2018-02-04T16:14:45.641Z,24.63
2018-02-04T16:17:13.967Z,24.20
2018-02-04T16:19:41.534Z,22.77
2018-02-04T16:22:09.075Z,24.98
2018-02-04T16:24:36.581Z,23.27
2018-02-04T16:27:04.105Z,25.45
2018-02-04T16:29:31.642Z,24.85
2018-02-04T16:31:59.240Z,38.78
2018-02-04T16:34:26.756Z,29.30
2018-02-04T16:36:54.286Z,28.50
2018-02-04T16:39:21.844Z,55.78
2018-02-04T16:41:49.394Z,36.63
2018-02-04T16:44:16.949Z,30.77
2018-02-04T16:46:44.496Z,33.42
2018-02-04T16:49:12.026Z,36.40
2018-02-04T16:51:39.576Z,32.13
2018-02-04T16:54:07.147Z,36.58
2018-02-04T16:56:34.686Z,33.00
2018-02-04T16:59:02.259Z,38.28
2018-02-04T17:01:29.966Z,31.70
2018-02-04T17:03:57.669Z,36.33
2018-02-04T17:06:25.257Z,39.38
2018-02-04T17:08:52.772Z,47.65
2018-02-04T17:11:21.072Z,39.65
2018-02-04T17:13:48.625Z,35.30
2018-02-04T17:16:16.133Z,40.97
2018-02-04T17:18:43.669Z,32.72
2018-02-04T17:21:11.202Z,36.83
2018-02-04T17:23:38.737Z,30.37
2018-02-04T17:26:07.039Z,30.23
2018-02-04T17:28:34.592Z,34.28
2018-02-04T17:31:02.128Z,39.47
2018-02-04T17:33:30.441Z,39.70
2018-02-04T17:35:57.976Z,33.65
2018-02-04T17:38:26.262Z,35.17
2018-02-04T17:40:54.754Z,33.40
2018-02-04T17:43:22.286Z,31.00
2018-02-04T17:45:50.611Z,32.65
2018-02-04T17:48:18.466Z,31.73
2018-02-04T17:50:45.992Z,28.35
2018-02-04T17:53:14.270Z,32.03
2018-02-04T17:55:41.819Z,31.33
2018-02-04T17:58:10.117Z,33.08
2018-02-04T18:00:37.939Z,32.58
2018-02-04T18:03:05.474Z,32.10
2018-02-04T18:05:33.005Z,32.85
2018-02-04T18:08:00.719Z,29.30
2018-02-04T18:10:28.471Z,30.40
2018-02-04T18:12:56.083Z,28.05
2018-02-04T18:15:23.853Z,31.80
2018-02-04T18:17:51.529Z,28.35
2018-02-04T18:20:19.136Z,30.37
2018-02-04T18:22:46.684Z,36.90
2018-02-04T18:25:14.313Z,34.63
2018-02-04T18:27:41.984Z,29.48
2018-02-04T18:30:09.717Z,33.72
2018-02-04T18:32:37.257Z,34.75
2018-02-04T18:35:05.540Z,32.20
2018-02-04T18:37:33.951Z,28.17
2018-02-04T18:40:01.543Z,33.80
2018-02-04T18:42:29.115Z,38.78
2018-02-04T18:44:56.694Z,36.17
2018-02-04T18:47:25.152Z,34.33
2018-02-04T18:49:57.351Z,62.30
2018-02-04T18:52:25.776Z,41.30
2018-02-04T18:54:54.302Z,32.60
2018-02-04T18:57:21.919Z,45.42
2018-02-04T18:59:49.528Z,46.17
2018-02-04T19:02:17.855Z,34.05
2018-02-04T19:04:45.524Z,36.47
2018-02-04T19:07:13.899Z,35.03
2018-02-04T19:09:41.523Z,39.08
2018-02-04T19:12:09.071Z,34.90
2018-02-04T19:14:43.510Z,34.03
2018-02-04T19:17:11.187Z,34.80
2018-02-04T19:19:43.524Z,33.28
2018-02-04T19:22:11.875Z,33.40
2018-02-04T19:24:44.246Z,31.95
2018-02-04T19:27:11.935Z,39.70
2018-02-04T19:29:39.602Z,42.42
2018-02-04T19:32:07.206Z,37.50
2018-02-04T19:34:34.889Z,38.75
2018-02-04T19:37:02.752Z,35.85
2018-02-04T19:39:30.676Z,33.13
2018-02-04T19:41:58.301Z,40.80
2018-02-04T19:44:25.982Z,35.17
2018-02-04T19:46:53.748Z,33.72
2018-02-04T19:49:22.556Z,36.25
2018-02-04T19:51:50.335Z,36.58
2018-02-04T19:54:19.885Z,37.25
2018-02-04T19:56:47.453Z,38.30
2018-02-04T19:59:15.801Z,44.63
2018-02-04T20:01:43.968Z,40.53
2018-02-04T20:04:14.064Z,43.13
2018-02-04T20:06:42.516Z,41.20
2018-02-04T20:09:13.032Z,40.65
2018-02-04T20:11:41.544Z,38.30
2018-02-04T20:14:09.958Z,37.00
2018-02-04T20:16:40.789Z,42.65
2018-02-04T20:19:10.192Z,38.60
2018-02-04T20:21:37.697Z,37.20
2018-02-04T20:24:05.968Z,39.13
2018-02-04T20:26:34.286Z,43.03
2018-02-04T20:29:01.866Z,38.88
2018-02-04T20:31:29.630Z,35.65
2018-02-04T20:34:09.209Z,40.88
2018-02-04T20:36:37.506Z,43.17
2018-02-04T20:39:05.038Z,40.95
2018-02-04T20:41:32.589Z,48.13
2018-02-04T20:44:00.209Z,46.45
2018-02-04T20:46:27.780Z,43.80
2018-02-04T20:48:55.323Z,49.13
2018-02-04T20:51:22.881Z,42.42
2018-02-04T20:53:50.487Z,40.88
2018-02-04T20:56:18.034Z,43.65
2018-02-04T20:58:45.606Z,42.45
2018-02-04T21:01:13.156Z,39.92
2018-02-04T21:03:41.024Z,42.42
2018-02-04T21:06:08.539Z,41.55
2018-02-04T21:08:36.061Z,45.70
2018-02-04T21:11:03.767Z,40.12
2018-02-04T21:13:31.446Z,41.72
2018-02-04T21:15:59.036Z,40.00
2018-02-04T21:18:26.591Z,41.47
2018-02-04T21:20:54.140Z,43.30
2018-02-04T21:23:21.908Z,39.17
2018-02-04T21:25:50.377Z,40.22
2018-02-04T21:28:17.969Z,41.83
2018-02-04T21:30:46.303Z,46.05
2018-02-04T21:33:14.683Z,45.17
2018-02-04T21:35:42.201Z,41.97
2018-02-04T21:38:10.947Z,55.72
2018-02-04T21:40:38.861Z,47.83
2018-02-04T21:43:06.456Z,53.10
2018-02-04T21:45:34.816Z,49.42
2018-02-04T21:48:02.492Z,40.00
2018-02-04T21:50:31.796Z,40.12
2018-02-04T21:52:59.958Z,37.05
2018-02-04T21:55:27.838Z,41.80
2018-02-04T21:57:56.198Z,34.15
2018-02-04T22:00:23.708Z,36.10
2018-02-04T22:02:51.326Z,45.28
2018-02-04T22:05:19.374Z,41.97
2018-02-04T22:07:46.988Z,39.35
2018-02-04T22:10:14.573Z,39.75
2018-02-04T22:12:42.867Z,38.85
2018-02-04T22:15:10.409Z,36.20
2018-02-04T22:17:38.670Z,35.78
2018-02-04T22:20:06.209Z,37.20
2018-02-04T22:22:33.746Z,39.65
2018-02-04T22:25:01.316Z,37.47
2018-02-04T22:27:28.842Z,39.90
2018-02-04T22:29:56.404Z,42.30
2018-02-04T22:32:23.903Z,38.13
2018-02-04T22:34:51.411Z,37.00
2018-02-04T22:37:18.993Z,39.50
2018-02-04T22:39:46.485Z,38.03
2018-02-04T22:42:14.049Z,43.00
2018-02-04T22:44:41.576Z,43.15
2018-02-04T22:47:09.111Z,43.10
2018-02-04T22:49:36.634Z,41.50
2018-02-04T22:52:04.195Z,41.25
2018-02-04T22:54:31.691Z,43.67
2018-02-04T22:56:59.201Z,43.50
2018-02-04T22:59:26.756Z,40.50
2018-02-04T23:01:54.292Z,44.38
2018-02-04T23:04:21.820Z,46.50
2018-02-04T23:06:49.339Z,45.90
2018-02-04T23:09:16.841Z,45.55
2018-02-04T23:11:45.290Z,44.53
2018-02-04T23:14:12.828Z,47.53
2018-02-04T23:16:40.363Z,49.42
2018-02-04T23:19:07.909Z,43.45
2018-02-04T23:21:35.418Z,43.87
2018-02-04T23:24:02.916Z,43.78
2018-02-04T23:26:30.457Z,43.85
2018-02-04T23:28:58.729Z,46.95
2018-02-04T23:31:27.033Z,48.33
2018-02-04T23:33:54.563Z,51.37
2018-02-04T23:36:22.834Z,45.30
2018-02-04T23:38:51.124Z,44.47
2018-02-04T23:41:19.411Z,51.20
2018-02-04T23:43:46.947Z,45.15
2018-02-04T23:46:15.220Z,41.53
2018-02-04T23:48:43.519Z,46.35
2018-02-04T23:51:11.059Z,44.33
2018-02-04T23:53:39.380Z,45.90
2018-02-04T23:56:06.904Z,43.50
2018-02-04T23:58:34.435Z,45.17
